Time;durP1;ratioP1;P1;durP2;ratioP2;P2;SDS_P1;SDS_P2;PMS_P1;PMS_P2;Temp;Humidity;BMP_temperature;BMP_pressure;BME280_temperature;BME280_humidity;BME280_pressure;Samples;Min_cycle;Max_cycle;Signal;HPM_P1;HPM_P2
2022/12/29 00:04:16;;;;;;;3.63;2.75;;;;;;;18.94;47.09;100965.44;20896138;28;20045;-82
2022/12/29 00:35:10;;;;;;;3.88;3.00;;;;;;;18.91;47.01;100968.19;20904110;28;20041;-81
2022/12/29 00:45:10;;;;;;;4.65;3.03;;;;;;;18.89;47.01;100968.31;20913205;28;20044;-81
2022/12/29 00:55:11;;;;;;;5.25;2.75;;;;;;;18.89;47.28;100968.31;20904518;28;20136;-81
2022/12/29 01:05:12;;;;;;;4.63;3.40;;;;;;;18.86;47.06;100969.34;20901448;28;20072;-81
2022/12/29 01:15:14;;;;;;;5.20;3.42;;;;;;;18.85;47.03;100972.06;20905247;28;20044;-81
2022/12/29 01:25:33;;;;;;;3.92;3.08;;;;;;;18.84;46.96;100967.72;20902381;28;20056;-79
2022/12/29 01:35:33;;;;;;;4.70;3.05;;;;;;;18.82;46.90;100962.59;20879580;28;20037;-81
2022/12/29 01:45:34;;;;;;;4.05;2.80;;;;;;;18.83;46.88;100963.41;20908464;28;20052;-82
2022/12/29 01:55:40;;;;;;;5.43;3.45;;;;;;;18.81;46.97;100958.25;20891911;28;20389;-81
2022/12/29 02:06:02;;;;;;;3.58;2.72;;;;;;;18.79;46.98;100947.00;20891839;28;20045;-81
2022/12/29 02:16:17;;;;;;;4.07;3.20;;;;;;;18.78;46.91;100928.75;20920447;28;20107;-81
2022/12/29 02:26:32;;;;;;;4.13;2.90;;;;;;;18.75;46.89;100932.38;20916070;28;20044;-81
2022/12/29 02:36:51;;;;;;;4.18;3.10;;;;;;;18.74;46.92;100928.06;20917278;28;20789;-81
2022/12/29 02:47:02;;;;;;;3.47;2.67;;;;;;;18.73;46.63;100915.88;20909346;28;20145;-81
2022/12/29 02:57:08;;;;;;;3.70;2.75;;;;;;;18.71;46.92;100908.09;20900406;28;20067;-81
2022/12/29 03:07:15;;;;;;;4.25;3.00;;;;;;;18.70;46.76;100906.41;20907941;28;20044;-81
2022/12/29 03:17:31;;;;;;;3.05;2.60;;;;;;;18.69;46.82;100898.66;20917295;28;20045;-82
2022/12/29 03:27:36;;;;;;;4.43;3.03;;;;;;;18.67;46.98;100895.25;20896711;28;20029;-80
2022/12/29 03:37:40;;;;;;;4.90;3.05;;;;;;;18.67;46.76;100879.53;20916921;28;20461;-82
2022/12/29 03:47:41;;;;;;;4.20;2.95;;;;;;;18.66;46.86;100877.81;20902130;28;20033;-82
2022/12/29 03:57:41;;;;;;;5.00;3.08;;;;;;;18.64;46.68;100877.91;20887652;28;20162;-82
2022/12/29 04:07:42;;;;;;;3.53;2.85;;;;;;;18.63;46.65;100894.59;20895293;28;20412;-81
2022/12/29 04:17:42;;;;;;;3.90;3.00;;;;;;;18.61;46.69;100880.72;20893792;28;20037;-82
2022/12/29 04:27:42;;;;;;;4.72;2.92;;;;;;;18.61;46.66;100890.38;20909357;28;20037;-81
2022/12/29 04:37:43;;;;;;;3.97;2.92;;;;;;;18.59;46.85;100884.38;20899455;28;20040;-82
2022/12/29 04:47:43;;;;;;;4.45;3.08;;;;;;;18.59;46.66;100884.38;20904167;28;20040;-81
2022/12/29 04:57:44;;;;;;;4.28;3.20;;;;;;;18.58;46.66;100875.66;20895388;28;20385;-81
2022/12/29 05:07:44;;;;;;;4.60;3.17;;;;;;;18.56;46.56;100895.88;20899529;28;20029;-81
2022/12/29 05:17:46;;;;;;;4.63;3.10;;;;;;;18.56;46.64;100893.25;20910102;28;20100;-81
2022/12/29 05:27:47;;;;;;;4.20;3.20;;;;;;;18.52;46.58;100884.72;20910830;28;20416;-82
2022/12/29 05:37:48;;;;;;;4.15;3.10;;;;;;;18.53;46.52;100891.66;20910474;28;20048;-81
2022/12/29 05:47:48;;;;;;;4.80;3.25;;;;;;;18.51;46.53;100879.56;20909892;28;20041;-81
2022/12/29 05:57:48;;;;;;;5.18;3.60;;;;;;;18.51;46.66;100866.47;20886714;28;20045;-81
2022/12/29 06:07:49;;;;;;;4.07;3.33;;;;;;;18.50;46.67;100868.22;20906440;28;20496;-81
2022/12/29 06:17:49;;;;;;;4.32;3.33;;;;;;;18.49;46.44;100873.56;20902218;28;20093;-81
2022/12/29 06:27:50;;;;;;;4.55;3.22;;;;;;;18.47;46.47;100870.19;20904974;28;20045;-81
2022/12/29 06:37:50;;;;;;;4.28;3.47;;;;;;;18.47;46.39;100872.81;20890570;28;20056;-81
2022/12/29 06:47:51;;;;;;;6.72;4.00;;;;;;;18.46;46.41;100876.38;20878777;28;20057;-80
2022/12/29 06:57:55;;;;;;;5.28;3.67;;;;;;;18.46;46.35;100892.94;20912059;28;20141;-81
2022/12/29 07:07:55;;;;;;;4.45;3.35;;;;;;;18.45;46.24;100886.00;20920338;28;20040;-83
2022/12/29 07:17:55;;;;;;;4.70;3.63;;;;;;;18.46;46.34;100905.22;20902528;28;20484;-81
2022/12/29 07:27:56;;;;;;;4.53;3.33;;;;;;;18.46;46.20;100899.97;20916754;28;20037;-83
2022/12/29 07:37:56;;;;;;;4.43;3.38;;;;;;;18.46;46.26;100902.59;20909422;28;20407;-81
2022/12/29 07:47:57;;;;;;;5.47;3.80;;;;;;;18.45;46.19;100893.88;20910672;28;20071;-81
2022/12/29 07:57:57;;;;;;;5.32;3.80;;;;;;;18.46;46.20;100906.06;20889576;28;20431;-81
2022/12/29 08:07:58;;;;;;;4.32;3.45;;;;;;;18.46;46.30;100903.44;20882060;28;20057;-81
2022/12/29 08:17:58;;;;;;;5.45;3.60;;;;;;;18.46;46.19;100903.44;20911977;28;20124;-81
2022/12/29 08:27:59;;;;;;;4.93;3.90;;;;;;;18.46;46.32;100898.19;20889077;28;20098;-82
2022/12/29 08:37:59;;;;;;;5.47;4.05;;;;;;;18.47;46.08;100886.78;20911889;28;20041;-82
2022/12/29 08:48:00;;;;;;;6.25;4.00;;;;;;;18.47;45.98;100885.91;20892770;28;20140;-81
2022/12/29 08:58:00;;;;;;;5.03;3.88;;;;;;;18.47;46.21;100884.16;20907423;28;20055;-81
2022/12/29 09:08:01;;;;;;;5.63;3.90;;;;;;;18.47;46.21;100875.41;20887231;28;20036;-82
2022/12/29 09:18:01;;;;;;;7.35;4.30;;;;;;;18.46;45.96;100860.66;20897573;28;20045;-81
2022/12/29 09:28:07;;;;;;;6.85;4.30;;;;;;;18.45;45.83;100851.91;20875075;28;20041;-81
2022/12/29 09:38:07;;;;;;;6.85;4.30;;;;;;;18.46;46.06;100837.03;20877950;28;20589;-81
2022/12/29 09:48:17;;;;;;;6.10;4.15;;;;;;;18.47;46.01;100830.84;20908601;28;20049;-81
2022/12/29 09:58:17;;;;;;;6.38;4.40;;;;;;;18.48;46.08;100827.28;20904716;28;20041;-81
2022/12/29 10:08:37;;;;;;;6.55;4.40;;;;;;;18.48;46.08;100814.19;20900774;28;20052;-82
2022/12/29 10:19:15;;;;;;;7.13;4.70;;;;;;;18.48;46.07;100798.44;20892698;28;20511;-81
2022/12/29 10:29:17;;;;;;;6.65;4.88;;;;;;;18.47;45.84;100802.00;20865055;28;20040;-81
2022/12/29 10:39:28;;;;;;;7.75;5.18;;;;;;;18.49;46.01;100794.91;20916723;28;20048;-81
2022/12/29 10:49:32;;;;;;;7.93;4.63;;;;;;;18.50;46.01;100791.34;20879550;28;20099;-82
2022/12/29 10:59:36;;;;;;;7.10;4.85;;;;;;;18.61;45.80;100780.22;20914057;28;20091;-81
2022/12/29 11:09:39;;;;;;;7.35;4.85;;;;;;;18.70;45.85;100772.63;20888122;28;20037;-81
2022/12/29 11:19:40;;;;;;;6.53;4.88;;;;;;;18.80;45.71;100779.94;20885830;28;20507;-82
2022/12/29 11:29:42;;;;;;;6.75;4.60;;;;;;;18.87;45.77;100768.97;20895030;28;20139;-82
2022/12/29 11:39:59;;;;;;;7.00;4.85;;;;;;;18.95;45.54;100746.69;20905188;28;20045;-81
2022/12/29 11:50:06;;;;;;;5.82;4.57;;;;;;;19.02;45.37;100734.88;20917729;28;20041;-82
2022/12/29 12:00:24;;;;;;;7.93;5.10;;;;;;;19.09;45.13;100738.81;20917070;28;20041;-81
2022/12/29 12:10:33;;;;;;;6.75;4.93;;;;;;;19.16;45.25;100750.63;20899718;28;20039;-82
2022/12/29 12:20:54;;;;;;;6.55;4.82;;;;;;;19.24;45.15;100723.88;20910483;28;20174;-81
2022/12/29 12:30:58;;;;;;;6.78;5.05;;;;;;;19.29;44.81;100708.66;20912391;28;20045;-81
2022/12/29 12:41:19;;;;;;;7.43;5.30;;;;;;;19.33;44.96;100657.66;20883855;28;20072;-81
2022/12/29 12:51:57;;;;;;;5.97;4.80;;;;;;;19.36;44.68;100662.69;20911079;28;20056;-81
2022/12/29 13:02:15;;;;;;;7.60;5.07;;;;;;;19.41;44.70;100675.50;20912448;28;20071;-82
2022/12/29 13:12:53;;;;;;;7.00;4.75;;;;;;;19.43;44.58;100678.91;20908364;28;20068;-82
2022/12/29 13:23:08;;;;;;;6.50;4.68;;;;;;;19.44;44.78;100688.44;20901359;28;20097;-81
2022/12/29 13:33:34;;;;;;;7.13;4.95;;;;;;;19.45;44.42;100689.28;20901526;28;20365;-81
2022/12/29 13:43:39;;;;;;;6.80;4.78;;;;;;;19.41;44.38;100698.28;20888345;28;20569;-81
2022/12/29 13:53:51;;;;;;;7.15;4.85;;;;;;;19.36;44.62;100688.09;20908358;28;20036;-82
2022/12/29 14:03:55;;;;;;;6.68;4.82;;;;;;;19.30;44.72;100710.34;20893540;28;20067;-81
2022/12/29 14:13:56;;;;;;;7.47;5.47;;;;;;;19.27;44.77;100707.06;20926404;28;20047;-81
2022/12/29 14:24:34;;;;;;;7.68;5.30;;;;;;;19.24;44.73;100704.63;20911162;28;20045;-81
2022/12/29 14:34:39;;;;;;;8.10;5.43;;;;;;;19.19;44.92;100695.28;20919810;28;20496;-81
2022/12/29 14:44:51;;;;;;;6.95;5.10;;;;;;;19.13;44.73;100698.28;20908434;28;20523;-81
2022/12/29 14:55:15;;;;;;;6.78;5.00;;;;;;;19.10;44.88;100706.34;20922066;28;20049;-81
2022/12/29 15:05:34;;;;;;;7.00;4.97;;;;;;;19.07;44.98;100717.06;20885156;28;20076;-81
2022/12/29 15:15:38;;;;;;;6.43;5.05;;;;;;;19.01;45.18;100733.19;20917278;28;20033;-81
2022/12/29 15:25:47;;;;;;;;;;;;;;;18.96;45.19;100737.91;20926095;28;20048;-83
2022/12/29 15:35:53;;;;;;;6.75;5.25;;;;;;;18.93;45.31;100730.19;20901104;28;19925;-81
2022/12/29 15:45:54;;;;;;;6.95;5.18;;;;;;;18.90;45.28;100731.22;20903869;28;20033;-81
2022/12/29 15:55:58;;;;;;;7.07;5.28;;;;;;;18.87;45.39;100745.38;20915411;28;20577;-81
2022/12/29 16:06:10;;;;;;;6.50;5.03;;;;;;;18.84;45.35;100742.09;20913500;28;20418;-81
2022/12/29 16:16:20;;;;;;;8.18;5.45;;;;;;;18.80;45.57;100738.81;20895351;28;20041;-83
2022/12/29 16:26:22;;;;;;;8.38;6.03;;;;;;;18.77;45.34;100740.78;20911670;28;20052;-81
2022/12/29 16:36:27;;;;;;;7.33;5.37;;;;;;;18.74;45.63;100747.06;20914582;28;20047;-81
2022/12/29 16:46:30;;;;;;;8.60;5.93;;;;;;;18.71;45.43;100753.34;20910648;28;20094;-81
2022/12/29 16:56:34;;;;;;;8.48;6.25;;;;;;;18.70;45.51;100761.28;20911310;28;20526;-81
2022/12/29 17:06:35;;;;;;;10.15;6.32;;;;;;;18.67;45.20;100771.97;20910801;28;20049;-80
2022/12/29 17:16:35;;;;;;;8.75;6.55;;;;;;;18.66;45.50;100762.41;20891937;28;20144;-81
2022/12/29 17:26:36;;;;;;;10.73;6.95;;;;;;;18.63;45.52;100755.56;20906769;28;20504;-81
2022/12/29 17:36:36;;;;;;;9.75;7.05;;;;;;;18.61;45.52;100751.38;20909212;28;20052;-82
2022/12/29 17:46:37;;;;;;;11.43;7.30;;;;;;;18.59;45.50;100756.72;20892390;28;20064;-81
2022/12/29 17:56:37;;;;;;;9.10;6.75;;;;;;;18.58;45.46;100756.78;20907853;28;20060;-81
2022/12/29 18:06:38;;;;;;;9.32;7.03;;;;;;;18.56;45.51;100754.25;20912601;28;20678;-82
2022/12/29 18:16:39;;;;;;;10.60;7.03;;;;;;;18.54;45.44;100735.13;20901774;28;20033;-81
2022/12/29 18:26:40;;;;;;;10.52;7.35;;;;;;;18.52;45.42;100721.28;20909208;28;20498;-81
2022/12/29 18:36:40;;;;;;;10.38;7.18;;;;;;;18.50;45.56;100717.91;20891988;28;20409;-82
2022/12/29 18:46:41;;;;;;;9.70;6.82;;;;;;;18.48;45.60;100720.63;20904623;28;20033;-82
2022/12/29 18:56:41;;;;;;;10.27;7.30;;;;;;;18.47;45.52;100726.81;20929570;28;20270;-80
2022/12/29 19:06:43;;;;;;;10.88;7.30;;;;;;;18.45;45.44;100718.19;20924782;28;20514;-82
2022/12/29 19:16:44;;;;;;;10.35;7.32;;;;;;;18.42;45.62;100707.03;20923041;28;20553;-81
2022/12/29 19:26:44;;;;;;;11.38;7.75;;;;;;;18.40;45.63;100709.75;20905969;28;20384;-82
2022/12/29 19:36:45;;;;;;;11.10;7.45;;;;;;;18.39;45.58;100711.56;20903439;28;20037;-82
2022/12/29 19:46:45;;;;;;;9.95;6.95;;;;;;;18.38;45.73;100706.38;20920027;28;20526;-81
2022/12/29 19:56:46;;;;;;;11.52;7.50;;;;;;;18.37;45.44;100694.22;20902661;28;20044;-81
2022/12/29 20:06:47;;;;;;;11.48;7.88;;;;;;;18.35;45.68;100696.09;20915185;28;20052;-81
2022/12/29 20:16:47;;;;;;;9.80;7.35;;;;;;;18.33;45.66;100682.22;20898579;28;20083;-82
2022/12/29 20:26:48;;;;;;;10.10;7.25;;;;;;;18.32;45.65;100688.41;20917785;28;20302;-81
2022/12/29 20:36:49;;;;;;;10.80;7.45;;;;;;;18.32;45.70;100684.03;20915366;28;20076;-82
2022/12/29 20:46:49;;;;;;;11.93;7.85;;;;;;;18.29;45.69;100683.38;20915437;28;20526;-81
2022/12/29 20:56:51;;;;;;;10.55;7.35;;;;;;;18.28;45.46;100689.53;20913777;28;20496;-81
2022/12/29 21:06:52;;;;;;;10.43;7.38;;;;;;;18.27;45.66;100686.06;20914896;28;20126;-81
2022/12/29 21:16:52;;;;;;;11.02;7.88;;;;;;;18.26;45.76;100700.13;20876187;28;20037;-80
2022/12/29 21:26:53;;;;;;;10.82;7.72;;;;;;;18.24;45.67;100694.13;20908178;28;20056;-81
2022/12/29 21:36:53;;;;;;;10.02;7.28;;;;;;;18.22;45.58;100686.34;20906547;28;20090;-81
2022/12/29 21:46:54;;;;;;;11.00;7.85;;;;;;;18.20;45.69;100680.34;20886860;28;20048;-81
2022/12/29 21:56:54;;;;;;;11.48;7.70;;;;;;;18.21;45.50;100679.41;20913665;28;20596;-82
2022/12/29 22:17:14;;;;;;;9.77;7.45;;;;;;;18.16;45.75;100676.25;20937971;28;20045;-81
2022/12/29 22:27:14;;;;;;;11.52;7.50;;;;;;;18.17;45.63;100692.78;20933033;28;20128;-81
2022/12/29 22:37:15;;;;;;;12.07;7.80;;;;;;;18.15;45.51;100673.69;20946924;28;20111;-81
2022/12/29 22:47:16;;;;;;;11.38;7.57;;;;;;;18.14;45.68;100665.00;20930901;28;20036;-81
2022/12/29 22:57:16;;;;;;;11.10;8.02;;;;;;;18.14;45.72;100674.63;20906136;28;20068;-82
2022/12/29 23:07:16;;;;;;;10.95;7.57;;;;;;;18.12;45.65;100669.47;20905842;28;20037;-82
2022/12/29 23:17:17;;;;;;;10.65;7.55;;;;;;;18.13;45.81;100659.84;20887940;28;20507;-81
2022/12/29 23:27:17;;;;;;;11.50;8.10;;;;;;;18.10;45.60;100644.31;20901541;28;20141;-81
2022/12/29 23:37:18;;;;;;;10.43;7.90;;;;;;;18.08;45.55;100634.75;20910795;28;20037;-80
2022/12/29 23:47:19;;;;;;;11.32;8.13;;;;;;;18.08;45.55;100642.59;20886892;28;20037;-81
2022/12/29 23:57:19;;;;;;;11.52;7.80;;;;;;;18.08;45.61;100628.69;20908628;28;20041;-80
